Flint, TX (75762)

4:45 AM CST on February 11, 2016 (GMT -0600)
Langley Farm Weather | | Change Station
CLOSE
Current Station
Personal Weather Station
Location: Flint, TX
Elevation: 445 ft
Nearby Weather Stations

Elev 445 ft 32.22 °N, 95.42 °W | Updated 32 seconds ago

Clear
Clear
56.7 °F
Feels Like 56.7 °F
N
4.0
Wind Variable Wind from WSW
Gusts 7.0 mph

Today
High -- | Low -- °F
--% Chance of Precip.
Yesterday
High -- | Low -- °F
Precip. -- in
Pressure 30.05 in
Visibility -9999.0 miles
Clouds Clear
Dew Point 44 °F
Humidity 63%
Rainfall 0.00 in
Snow Depth Not available.
7:08 AM 6:03 PM
Waxing Crescent, 11% visible
METAR KTYR 110953Z AUTO 22011KT CLR 13/03 A3006 RMK AO2 SLP176 T01330033
Pressure 30.05 in
Visibility -9999.0 miles
Clouds Clear
Dew Point 44 °F
Humidity 63%
Rainfall 0.00 in
Snow Depth Not available.
7:08 AM 6:03 PM
Waxing Crescent, 11% visible
METAR KTYR 110953Z AUTO 22011KT CLR 13/03 A3006 RMK AO2 SLP176 T01330033

10-Day Weather Forecast

Almanac

Astronomy

Feb. 11, 2016 Rise Set
Actual Time
Civil Twilight
Nautical Twilight
Astronomical Twilight
Moon
Length of Visible Light
Length of Day
Tomorrow will be .
, % of the Moon is Illuminated

Today's Extremes

State Highs State Lows

Community

WunderPhotos

Upload Photos

1,892,030 photos uploaded!

WunderBlog® & News

Nearby

Air Quality

  Air Quality AQ Index Pollutant
Not available.

Snow Depth

Station Depth Elevation

Earthquake Activity

City Distance Mag. Time & Date
Minimum magnitude displayed is 2.5.

Coastal Water Temperatures

Place Temperature

Stations

Nearby Weather Stations

Station Location Temp. Windchill Dew Point Humidity Wind Precip. Elev Updated Type
                   

Watches & Warnings

There are currently no watches in effect.